createdAt,value
2017-08-01T00:01:27.306Z,21.00
2017-08-01T00:03:55.381Z,21.00
2017-08-01T00:06:24.226Z,21.10
2017-08-01T00:08:52.324Z,21.10
2017-08-01T00:11:20.794Z,21.00
2017-08-01T00:13:49.820Z,20.90
2017-08-01T00:16:17.894Z,21.00
2017-08-01T00:18:45.982Z,21.00
2017-08-01T00:21:14.854Z,21.00
2017-08-01T00:23:42.936Z,21.10
2017-08-01T00:26:11.785Z,21.10
2017-08-01T00:28:39.918Z,21.20
2017-08-01T00:31:08.002Z,21.20
2017-08-01T00:33:36.074Z,21.10
2017-08-01T00:36:04.944Z,21.20
2017-08-01T00:38:33.413Z,21.20
2017-08-01T00:41:02.258Z,21.20
2017-08-01T00:43:30.983Z,21.10
2017-08-01T00:45:59.082Z,21.10
2017-08-01T00:48:27.198Z,21.20
2017-08-01T00:50:55.294Z,21.30
2017-08-01T00:53:23.354Z,21.50
2017-08-01T00:55:51.462Z,20.90
2017-08-01T00:58:20.294Z,20.40
2017-08-01T01:00:48.782Z,20.20
2017-08-01T01:03:17.265Z,20.00
2017-08-01T01:05:45.351Z,20.00
2017-08-01T01:08:14.210Z,20.00
2017-08-01T01:10:43.078Z,19.90
2017-08-01T01:13:11.930Z,19.80
2017-08-01T01:15:40.038Z,19.80
2017-08-01T01:18:08.926Z,19.60
2017-08-01T01:20:37.764Z,19.50
2017-08-01T01:23:05.857Z,19.30
2017-08-01T01:25:33.960Z,19.10
2017-08-01T01:28:02.799Z,19.00
2017-08-01T01:30:30.884Z,18.90
2017-08-01T01:32:58.979Z,18.80
2017-08-01T01:35:27.482Z,18.70
2017-08-01T01:37:55.592Z,18.80
2017-08-01T01:40:23.695Z,18.70
2017-08-01T01:42:51.791Z,18.70
2017-08-01T01:45:19.879Z,18.70
2017-08-01T01:47:48.003Z,18.70
2017-08-01T01:50:16.098Z,18.70
2017-08-01T01:52:44.958Z,18.80
2017-08-01T01:55:13.056Z,18.70
2017-08-01T01:57:41.143Z,18.70
2017-08-01T02:00:10.003Z,18.70
2017-08-01T02:02:38.084Z,18.80
2017-08-01T02:05:06.182Z,18.80
2017-08-01T02:07:35.023Z,18.80
2017-08-01T02:10:03.126Z,18.80
2017-08-01T02:12:31.205Z,18.70
2017-08-01T02:14:59.303Z,18.80
2017-08-01T02:17:27.405Z,18.80
2017-08-01T02:19:55.482Z,18.80
2017-08-01T02:22:23.578Z,18.90
2017-08-01T02:24:51.656Z,18.80
2017-08-01T02:27:19.762Z,18.80
2017-08-01T02:29:47.887Z,18.80
2017-08-01T02:32:16.362Z,18.80
2017-08-01T02:34:44.547Z,18.70
2017-08-01T02:37:12.683Z,18.70
2017-08-01T02:39:40.787Z,18.80
2017-08-01T02:42:08.971Z,18.90
2017-08-01T02:44:37.042Z,18.90
2017-08-01T02:47:06.627Z,18.90
2017-08-01T02:49:35.553Z,18.80
2017-08-01T02:52:05.134Z,18.80
2017-08-01T02:54:33.211Z,18.80
2017-08-01T02:57:01.383Z,18.90
2017-08-01T02:59:29.467Z,18.90
2017-08-01T03:01:57.654Z,18.90
2017-08-01T03:04:25.711Z,18.90
2017-08-01T03:06:53.819Z,18.90
2017-08-01T03:09:22.292Z,18.90
2017-08-01T03:11:50.763Z,18.90
2017-08-01T03:14:18.870Z,19.00
2017-08-01T03:16:46.942Z,19.00
2017-08-01T03:19:15.827Z,19.10
2017-08-01T03:21:44.669Z,19.10
2017-08-01T03:24:12.750Z,19.10
2017-08-01T03:26:41.251Z,19.10
2017-08-01T03:29:10.111Z,18.90
2017-08-01T03:31:38.942Z,18.80
2017-08-01T03:34:07.467Z,18.80
2017-08-01T03:36:35.514Z,18.80
2017-08-01T03:39:04.016Z,18.80
2017-08-01T03:41:32.514Z,18.80
2017-08-01T03:44:00.602Z,18.90
2017-08-01T03:46:28.703Z,18.80
2017-08-01T03:48:58.151Z,18.80
2017-08-01T03:51:26.271Z,18.80
2017-08-01T03:53:55.118Z,18.80
2017-08-01T03:56:23.199Z,18.80
2017-08-01T03:58:51.313Z,18.80
2017-08-01T04:01:19.391Z,18.80
2017-08-01T04:03:47.471Z,18.90
2017-08-01T04:06:16.015Z,18.90
2017-08-01T04:08:44.086Z,18.90
2017-08-01T04:11:12.171Z,18.80
2017-08-01T04:13:40.302Z,18.90
2017-08-01T04:16:08.383Z,18.90
2017-08-01T04:18:36.478Z,18.90
2017-08-01T04:21:04.620Z,18.80
2017-08-01T04:23:32.694Z,18.80
2017-08-01T04:26:00.779Z,18.80
2017-08-01T04:28:28.890Z,18.80
2017-08-01T04:30:57.779Z,18.80
2017-08-01T04:33:26.626Z,18.80
2017-08-01T04:35:54.707Z,18.90
2017-08-01T04:38:22.803Z,18.80
2017-08-01T04:40:51.671Z,18.80
2017-08-01T04:43:19.775Z,18.80
2017-08-01T04:45:47.886Z,18.80
2017-08-01T04:48:16.092Z,18.80
2017-08-01T04:50:44.208Z,18.90
2017-08-01T04:53:12.317Z,18.90
2017-08-01T04:55:40.418Z,19.00
2017-08-01T04:58:08.523Z,19.00
2017-08-01T05:00:37.370Z,19.00
2017-08-01T05:03:05.496Z,19.00
2017-08-01T05:05:34.331Z,15.70
2017-08-01T05:08:02.407Z,19.00
2017-08-01T05:10:30.527Z,18.90
2017-08-01T05:12:59.382Z,18.90
2017-08-01T05:15:27.456Z,19.00
2017-08-01T05:17:55.559Z,19.00
2017-08-01T05:20:23.663Z,19.20
2017-08-01T05:22:51.771Z,19.10
2017-08-01T05:25:19.875Z,19.20
2017-08-01T05:27:48.797Z,19.40
2017-08-01T05:30:16.846Z,19.30
2017-08-01T05:32:44.928Z,19.30
2017-08-01T05:35:13.813Z,19.50
2017-08-01T05:37:42.672Z,19.70
2017-08-01T05:40:10.747Z,19.80
2017-08-01T05:42:38.879Z,19.90
2017-08-01T05:45:06.959Z,19.90
2017-08-01T05:47:35.039Z,20.00
2017-08-01T05:50:03.182Z,20.00
2017-08-01T05:52:31.325Z,20.10
2017-08-01T05:55:00.157Z,20.10
2017-08-01T05:57:28.628Z,20.00
2017-08-01T05:59:56.731Z,20.20
2017-08-01T06:02:24.819Z,20.30
2017-08-01T06:04:52.935Z,20.50
2017-08-01T06:07:21.034Z,20.60
2017-08-01T06:09:49.123Z,20.80
2017-08-01T06:12:18.028Z,20.90
2017-08-01T06:14:46.892Z,21.10
2017-08-01T06:17:15.723Z,21.20
2017-08-01T06:19:44.591Z,21.40
2017-08-01T06:22:12.688Z,21.60
2017-08-01T06:24:40.818Z,21.80
2017-08-01T06:27:08.910Z,21.80
2017-08-01T06:29:36.983Z,22.00
2017-08-01T06:32:05.505Z,22.00
2017-08-01T06:34:34.341Z,22.00
2017-08-01T06:37:02.424Z,22.20
2017-08-01T06:39:30.547Z,22.30
2017-08-01T06:41:58.659Z,22.50
2017-08-01T06:44:26.739Z,22.60
2017-08-01T06:46:55.219Z,22.70
2017-08-01T06:49:23.342Z,22.60
2017-08-01T06:51:51.423Z,22.70
2017-08-01T06:54:19.503Z,22.60
2017-08-01T06:56:48.015Z,22.60
2017-08-01T06:59:16.488Z,22.80
2017-08-01T07:01:45.331Z,22.80
2017-08-01T07:04:13.426Z,23.00
2017-08-01T07:06:41.507Z,23.20
2017-08-01T07:09:10.371Z,23.30
2017-08-01T07:11:38.888Z,23.50
2017-08-01T07:14:06.961Z,23.60
2017-08-01T07:16:35.048Z,23.50
2017-08-01T07:19:03.545Z,23.30
2017-08-01T07:21:32.393Z,23.30
2017-08-01T07:24:00.487Z,23.10
2017-08-01T07:26:28.584Z,23.50
2017-08-01T07:28:57.444Z,23.70
2017-08-01T07:31:25.919Z,23.80
2017-08-01T07:33:54.427Z,23.90
2017-08-01T07:36:23.331Z,24.00
2017-08-01T07:38:51.807Z,24.00
2017-08-01T07:41:19.915Z,23.90
2017-08-01T07:43:47.994Z,23.60
2017-08-01T07:46:16.087Z,23.40
2017-08-01T07:48:44.188Z,23.20
2017-08-01T07:51:13.031Z,23.00
2017-08-01T07:53:41.144Z,22.80
2017-08-01T07:56:10.029Z,22.80
2017-08-01T07:58:38.116Z,22.80
2017-08-01T08:01:06.963Z,22.80
2017-08-01T08:03:35.076Z,22.80
2017-08-01T08:06:04.531Z,23.00
2017-08-01T08:08:32.979Z,23.00
2017-08-01T08:11:01.086Z,23.10
2017-08-01T08:13:29.183Z,23.10
2017-08-01T08:15:57.671Z,23.10
2017-08-01T08:18:26.548Z,23.20
2017-08-01T08:20:54.642Z,23.30
2017-08-01T08:23:23.511Z,23.30
2017-08-01T08:25:51.611Z,23.20
2017-08-01T08:28:20.459Z,23.00
2017-08-01T08:30:48.559Z,23.10
2017-08-01T08:33:16.644Z,22.90
2017-08-01T08:35:45.523Z,22.60
2017-08-01T08:38:13.608Z,22.40
2017-08-01T08:40:42.457Z,22.20
2017-08-01T08:43:10.551Z,22.10
2017-08-01T08:45:38.635Z,22.10
2017-08-01T08:48:06.752Z,22.10
2017-08-01T08:50:34.830Z,22.20
2017-08-01T08:53:02.907Z,22.50
2017-08-01T08:55:31.015Z,22.60
2017-08-01T08:57:59.099Z,22.80
2017-08-01T09:00:27.181Z,22.90
2017-08-01T09:02:56.038Z,23.00
2017-08-01T09:05:24.119Z,23.00
2017-08-01T09:07:52.248Z,23.00
2017-08-01T09:10:20.727Z,22.90
2017-08-01T09:12:48.811Z,22.90
2017-08-01T09:15:16.915Z,23.20
2017-08-01T09:17:45.027Z,23.50
2017-08-01T09:20:13.876Z,23.70
2017-08-01T09:22:42.726Z,23.90
2017-08-01T09:25:10.831Z,24.20
2017-08-01T09:27:39.311Z,24.40
2017-08-01T09:30:07.428Z,24.40
2017-08-01T09:32:36.275Z,24.10
2017-08-01T09:35:04.747Z,24.00
2017-08-01T09:37:32.954Z,24.10
2017-08-01T09:40:01.115Z,24.10
2017-08-01T09:42:29.199Z,24.00
2017-08-01T09:44:57.775Z,23.70
2017-08-01T09:47:26.288Z,23.50
2017-08-01T09:49:55.127Z,23.30
2017-08-01T09:52:23.599Z,23.40
2017-08-01T09:54:51.705Z,23.40
2017-08-01T09:57:19.811Z,23.50
2017-08-01T09:59:47.911Z,23.50
2017-08-01T10:02:16.396Z,23.70
2017-08-01T10:04:44.502Z,24.00
2017-08-01T10:07:12.611Z,24.70
2017-08-01T10:09:40.705Z,25.40
2017-08-01T10:12:08.779Z,25.80
2017-08-01T10:14:36.885Z,26.10
2017-08-01T10:17:04.971Z,26.40
2017-08-01T10:19:33.074Z,26.70
2017-08-01T10:22:01.201Z,26.70
2017-08-01T10:24:29.275Z,26.60
2017-08-01T10:26:57.358Z,26.30
2017-08-01T10:29:26.227Z,26.10
2017-08-01T10:31:54.307Z,25.90
2017-08-01T10:34:22.431Z,25.70
2017-08-01T10:36:50.510Z,25.50
2017-08-01T10:39:18.591Z,25.40
2017-08-01T10:41:46.699Z,25.20
2017-08-01T10:44:14.775Z,25.30
2017-08-01T10:46:42.883Z,25.90
2017-08-01T10:49:11.370Z,26.50
2017-08-01T10:51:39.488Z,26.70
2017-08-01T10:54:07.569Z,26.80
2017-08-01T10:56:35.646Z,26.90
2017-08-01T10:59:04.148Z,26.50
2017-08-01T11:01:32.986Z,26.20
2017-08-01T11:04:01.134Z,25.80
2017-08-01T11:06:29.214Z,25.40
2017-08-01T11:08:57.619Z,25.30
2017-08-01T11:11:25.714Z,25.10
2017-08-01T11:13:53.825Z,25.10
2017-08-01T11:16:21.902Z,25.00
2017-08-01T11:18:49.983Z,24.90
2017-08-01T11:21:18.096Z,24.90
2017-08-01T11:23:46.175Z,25.00
2017-08-01T11:26:14.255Z,25.10
2017-08-01T11:28:42.354Z,25.30
2017-08-01T11:31:10.852Z,25.90
2017-08-01T11:33:38.952Z,26.70
2017-08-01T11:36:07.052Z,27.10
2017-08-01T11:38:35.156Z,27.90
2017-08-01T11:41:04.032Z,28.90
2017-08-01T11:43:32.887Z,28.70
2017-08-01T11:46:01.358Z,28.30
2017-08-01T11:48:29.480Z,27.90
2017-08-01T11:50:58.328Z,27.60
2017-08-01T11:53:26.409Z,28.00
2017-08-01T11:55:54.532Z,28.30
2017-08-01T11:58:23.376Z,28.00
2017-08-01T12:00:51.459Z,27.70
2017-08-01T12:03:20.045Z,27.00
2017-08-01T12:05:48.647Z,26.40
2017-08-01T12:08:17.527Z,26.20
2017-08-01T12:10:45.613Z,25.90
2017-08-01T12:13:14.164Z,25.90
2017-08-01T12:15:43.056Z,26.00
2017-08-01T12:18:11.578Z,27.00
2017-08-01T12:20:40.427Z,27.80
2017-08-01T12:23:08.502Z,27.60
2017-08-01T12:25:36.627Z,27.60
2017-08-01T12:28:05.567Z,27.00
2017-08-01T12:30:34.144Z,26.60
2017-08-01T12:33:03.012Z,26.30
2017-08-01T12:35:31.211Z,26.10
2017-08-01T12:37:59.391Z,25.90
2017-08-01T12:40:27.563Z,26.00
2017-08-01T12:42:55.740Z,26.50
2017-08-01T12:45:24.628Z,26.50
2017-08-01T12:47:52.799Z,26.20
2017-08-01T12:50:20.979Z,25.90
2017-08-01T12:52:49.079Z,25.40
2017-08-01T12:55:18.045Z,25.10
2017-08-01T12:57:46.127Z,25.00
2017-08-01T13:00:14.292Z,24.70
2017-08-01T13:02:43.383Z,24.50
2017-08-01T13:05:11.472Z,24.20
2017-08-01T13:07:41.168Z,24.20
2017-08-01T13:10:10.772Z,24.10
2017-08-01T13:12:38.879Z,24.00
2017-08-01T13:15:07.438Z,23.90
2017-08-01T13:17:35.536Z,23.80
2017-08-01T13:20:04.423Z,23.70
2017-08-01T13:22:32.907Z,23.50
2017-08-01T13:25:01.771Z,23.60
2017-08-01T13:27:29.944Z,23.60
2017-08-01T13:29:58.787Z,23.60
2017-08-01T13:32:26.909Z,23.50
2017-08-01T13:34:54.987Z,23.40
2017-08-01T13:37:23.152Z,23.40
2017-08-01T13:39:51.331Z,23.20
2017-08-01T13:42:19.520Z,23.10
2017-08-01T13:44:48.364Z,23.00
2017-08-01T13:47:16.464Z,23.00
2017-08-01T13:49:44.548Z,22.90
2017-08-01T13:52:12.707Z,22.90
2017-08-01T13:54:40.887Z,23.00
2017-08-01T13:57:09.055Z,23.00
2017-08-01T13:59:37.227Z,23.00
2017-08-01T14:02:05.739Z,22.90
2017-08-01T14:04:34.685Z,22.80
2017-08-01T14:07:03.592Z,22.80
2017-08-01T14:09:31.763Z,22.70
2017-08-01T14:11:59.877Z,22.80
2017-08-01T14:14:28.723Z,22.80
2017-08-01T14:16:56.907Z,22.80
2017-08-01T14:19:25.799Z,22.70
2017-08-01T14:21:53.987Z,22.70
2017-08-01T14:24:22.100Z,22.70
2017-08-01T14:26:50.216Z,22.60
2017-08-01T14:29:19.898Z,22.80
2017-08-01T14:31:47.998Z,22.90
2017-08-01T14:34:16.170Z,23.00
2017-08-01T14:36:44.280Z,23.20
2017-08-01T14:39:13.238Z,23.40
2017-08-01T14:41:41.739Z,23.40
2017-08-01T14:44:09.891Z,23.60
2017-08-01T14:46:38.072Z,23.50
2017-08-01T14:49:06.151Z,23.50
2017-08-01T14:51:34.320Z,23.50
2017-08-01T14:54:02.816Z,23.50
2017-08-01T14:56:30.895Z,23.40
2017-08-01T14:58:59.811Z,23.30
2017-08-01T15:01:27.901Z,23.20
2017-08-01T15:03:55.984Z,23.10
2017-08-01T15:06:24.084Z,23.20
2017-08-01T15:08:52.562Z,23.40
2017-08-01T15:11:21.431Z,23.40
2017-08-01T15:13:51.331Z,23.40
2017-08-01T15:16:19.439Z,23.50
2017-08-01T15:18:47.515Z,23.60
2017-08-01T15:21:15.624Z,23.70
2017-08-01T15:23:44.487Z,23.70
2017-08-01T15:26:14.080Z,23.70
2017-08-01T15:28:42.196Z,23.70
2017-08-01T15:31:10.675Z,23.60
2017-08-01T15:33:39.526Z,23.60
2017-08-01T15:36:07.631Z,23.50
2017-08-01T15:38:36.499Z,23.40
2017-08-01T15:41:06.132Z,23.50
2017-08-01T15:43:34.198Z,23.60
2017-08-01T15:46:03.051Z,23.60
2017-08-01T15:48:31.543Z,23.50
2017-08-01T15:50:59.667Z,23.40
2017-08-01T15:53:27.748Z,23.50
2017-08-01T15:55:55.826Z,23.70
2017-08-01T15:58:23.938Z,23.70
2017-08-01T16:00:52.419Z,23.80
2017-08-01T16:03:20.492Z,24.00
2017-08-01T16:05:48.594Z,24.20
2017-08-01T16:08:17.075Z,24.30
2017-08-01T16:10:45.974Z,24.20
2017-08-01T16:13:14.819Z,24.00
2017-08-01T16:15:42.903Z,23.90
2017-08-01T16:18:11.044Z,23.60
2017-08-01T16:20:39.159Z,23.50
2017-08-01T16:23:07.655Z,23.40
2017-08-01T16:25:36.509Z,23.40
2017-08-01T16:28:04.618Z,23.50
2017-08-01T16:30:33.467Z,23.60
2017-08-01T16:33:01.551Z,23.60
2017-08-01T16:35:29.654Z,23.80
2017-08-01T16:37:58.498Z,24.00
2017-08-01T16:40:26.603Z,24.30
2017-08-01T16:42:54.700Z,24.60
2017-08-01T16:45:23.195Z,25.00
2017-08-01T16:47:51.299Z,25.50
2017-08-01T16:50:19.383Z,25.80
2017-08-01T16:52:47.557Z,25.90
2017-08-01T16:55:15.631Z,25.90
2017-08-01T16:57:43.720Z,25.90
2017-08-01T17:00:11.823Z,25.90
2017-08-01T17:02:39.899Z,25.70
2017-08-01T17:05:07.980Z,25.30
2017-08-01T17:07:36.506Z,25.30
2017-08-01T17:10:04.587Z,25.40
2017-08-01T17:12:33.062Z,25.50
2017-08-01T17:15:01.166Z,25.50
2017-08-01T17:17:30.070Z,25.60
2017-08-01T17:19:58.916Z,25.70
2017-08-01T17:22:27.393Z,25.70
2017-08-01T17:24:55.487Z,25.60
2017-08-01T17:27:23.964Z,25.50
2017-08-01T17:29:52.075Z,25.50
2017-08-01T17:32:20.596Z,25.30
2017-08-01T17:34:48.676Z,25.30
2017-08-01T17:37:16.847Z,25.20
2017-08-01T17:39:45.731Z,25.20
2017-08-01T17:42:14.573Z,25.20
2017-08-01T17:44:42.655Z,25.10
2017-08-01T17:47:10.759Z,25.10
2017-08-01T17:49:39.631Z,25.00
2017-08-01T17:52:07.715Z,25.00
2017-08-01T17:54:35.811Z,24.90
2017-08-01T17:57:03.896Z,24.80
2017-08-01T17:59:32.403Z,24.70
2017-08-01T18:02:00.479Z,24.60
2017-08-01T18:04:28.589Z,24.50
2017-08-01T18:06:56.674Z,24.40
2017-08-01T18:09:24.751Z,24.40
2017-08-01T18:11:52.909Z,24.20
2017-08-01T18:14:21.011Z,24.20
2017-08-01T18:16:49.100Z,24.10
2017-08-01T18:19:17.567Z,24.00
2017-08-01T18:21:46.071Z,23.90
2017-08-01T18:24:14.924Z,23.80
2017-08-01T18:26:42.998Z,23.80
2017-08-01T18:29:11.107Z,23.60
2017-08-01T18:31:39.951Z,23.60
2017-08-01T18:34:08.030Z,23.50
2017-08-01T18:36:36.485Z,23.40
2017-08-01T18:39:04.712Z,23.40
2017-08-01T18:41:33.745Z,23.30
2017-08-01T18:44:01.844Z,23.30
2017-08-01T18:46:29.923Z,23.20
2017-08-01T18:48:58.465Z,23.10
2017-08-01T18:51:26.563Z,23.10
2017-08-01T18:53:54.648Z,23.10
2017-08-01T18:56:22.746Z,23.10
2017-08-01T18:58:51.219Z,23.00
2017-08-01T19:01:19.334Z,23.00
2017-08-01T19:03:47.815Z,23.00
2017-08-01T19:06:16.659Z,23.00
2017-08-01T19:08:45.155Z,23.00
2017-08-01T19:11:14.005Z,22.90
2017-08-01T19:13:42.103Z,22.90
2017-08-01T19:16:10.955Z,22.80
2017-08-01T19:18:39.060Z,22.70
2017-08-01T19:21:07.559Z,22.70
2017-08-01T19:23:35.649Z,22.70
2017-08-01T19:26:04.531Z,22.70
2017-08-01T19:28:33.391Z,22.80
2017-08-01T19:31:01.486Z,22.70
2017-08-01T19:33:29.572Z,22.70
2017-08-01T19:35:57.667Z,22.60
2017-08-01T19:38:25.771Z,22.50
2017-08-01T19:40:53.851Z,22.40
2017-08-01T19:43:22.728Z,22.30
2017-08-01T19:45:51.571Z,22.30
2017-08-01T19:48:20.047Z,22.20
2017-08-01T19:50:48.915Z,22.20
2017-08-01T19:53:17.390Z,22.10
2017-08-01T19:55:45.503Z,22.00
2017-08-01T19:58:13.984Z,22.00
2017-08-01T20:00:42.832Z,21.90
2017-08-01T20:03:10.932Z,21.90
2017-08-01T20:05:39.806Z,21.80
2017-08-01T20:08:08.668Z,21.80
2017-08-01T20:10:36.751Z,21.80
2017-08-01T20:13:04.858Z,21.80
2017-08-01T20:15:33.730Z,21.70
2017-08-01T20:18:01.851Z,21.70
2017-08-01T20:20:29.935Z,21.70
2017-08-01T20:22:58.016Z,21.70
2017-08-01T20:25:26.119Z,21.70
2017-08-01T20:27:54.201Z,21.60
2017-08-01T20:30:22.302Z,21.60
2017-08-01T20:32:51.188Z,21.40
2017-08-01T20:35:20.039Z,21.40
2017-08-01T20:37:48.111Z,21.40
2017-08-01T20:40:16.228Z,21.40
2017-08-01T20:42:45.064Z,21.40
2017-08-01T20:45:13.163Z,21.30
2017-08-01T20:47:41.262Z,21.40
2017-08-01T20:50:09.381Z,21.40
2017-08-01T20:52:37.468Z,21.40
2017-08-01T20:55:05.549Z,21.50
2017-08-01T20:57:33.661Z,21.50
2017-08-01T21:00:01.743Z,21.30
2017-08-01T21:02:29.822Z,21.30
2017-08-01T21:04:58.039Z,21.20
2017-08-01T21:07:26.511Z,21.20
2017-08-01T21:09:54.587Z,21.10
2017-08-01T21:12:22.687Z,21.20
2017-08-01T21:14:51.555Z,21.20
2017-08-01T21:17:19.663Z,21.20
2017-08-01T21:19:47.742Z,21.20
2017-08-01T21:22:15.862Z,21.10
2017-08-01T21:24:43.955Z,21.10
2017-08-01T21:27:12.027Z,21.00
2017-08-01T21:29:40.546Z,21.00
2017-08-01T21:32:08.627Z,21.00
2017-08-01T21:34:36.717Z,21.00
2017-08-01T21:37:04.893Z,20.90
2017-08-01T21:39:33.367Z,20.90
2017-08-01T21:42:02.587Z,21.00
2017-08-01T21:44:30.691Z,21.00
2017-08-01T21:46:59.903Z,21.00
2017-08-01T21:49:28.811Z,21.00
2017-08-01T21:51:56.896Z,21.00
2017-08-01T21:54:25.747Z,21.10
2017-08-01T21:56:54.623Z,21.00
2017-08-01T21:59:22.707Z,21.00
2017-08-01T22:01:50.787Z,21.00
2017-08-01T22:04:19.667Z,20.90
2017-08-01T22:06:47.751Z,20.90
2017-08-01T22:09:16.603Z,21.00
2017-08-01T22:11:46.211Z,21.00
2017-08-01T22:14:14.311Z,21.00
2017-08-01T22:16:43.152Z,20.90
2017-08-01T22:19:12.027Z,20.90
2017-08-01T22:21:40.127Z,21.10
2017-08-01T22:24:08.971Z,21.10
2017-08-01T22:26:37.070Z,21.10
2017-08-01T22:29:05.579Z,21.10
2017-08-01T22:31:33.655Z,21.00
2017-08-01T22:34:02.503Z,21.00
2017-08-01T22:36:30.614Z,21.00
2017-08-01T22:38:58.880Z,21.00
2017-08-01T22:41:26.991Z,21.10
2017-08-01T22:43:55.859Z,21.10
2017-08-01T22:46:24.343Z,21.00
2017-08-01T22:48:52.455Z,21.00
2017-08-01T22:51:21.297Z,21.00
2017-08-01T22:53:49.471Z,21.00
2017-08-01T22:56:17.579Z,21.00
2017-08-01T22:58:46.543Z,21.00
2017-08-01T23:01:14.715Z,21.00
2017-08-01T23:03:42.796Z,21.10
2017-08-01T23:06:10.903Z,21.10
2017-08-01T23:08:39.783Z,21.00
2017-08-01T23:11:08.626Z,21.00
2017-08-01T23:13:36.707Z,21.00
2017-08-01T23:16:04.891Z,20.90
2017-08-01T23:18:33.068Z,20.90
2017-08-01T23:21:01.241Z,20.90
2017-08-01T23:23:29.351Z,20.80
2017-08-01T23:25:58.199Z,20.80
2017-08-01T23:28:27.823Z,20.70
2017-08-01T23:30:56.395Z,20.70
2017-08-01T23:33:24.563Z,20.70
2017-08-01T23:35:52.743Z,20.60
2017-08-01T23:38:20.828Z,20.60
2017-08-01T23:40:48.986Z,20.60
2017-08-01T23:43:17.571Z,20.50
2017-08-01T23:45:45.743Z,20.50
2017-08-01T23:48:13.918Z,20.40
2017-08-01T23:50:42.507Z,20.40
2017-08-01T23:53:10.983Z,20.40
2017-08-01T23:55:39.163Z,20.30
2017-08-01T23:58:07.270Z,20.40
